createdAt,value
2022-09-28T00:02:26.787Z,94996.88
2022-09-28T00:04:53.785Z,94996.34
2022-09-28T00:07:20.733Z,94984.31
2022-09-28T00:09:47.763Z,94989.00
2022-09-28T00:12:14.923Z,94986.94
2022-09-28T00:14:43.444Z,94978.56
2022-09-28T00:17:12.403Z,94985.91
2022-09-28T00:19:40.586Z,94977.78
2022-09-28T00:22:07.571Z,94977.00
2022-09-28T00:24:34.563Z,94978.06
2022-09-28T00:27:03.085Z,94989.25
2022-09-28T00:29:31.964Z,94994.47
2022-09-28T00:32:05.223Z,94991.09
2022-09-28T00:34:46.179Z,94985.28
2022-09-28T00:37:15.346Z,94972.78
2022-09-28T00:39:42.342Z,94971.75
2022-09-28T00:42:15.487Z,94974.34
2022-09-28T00:44:59.323Z,94980.31
2022-09-28T00:47:44.583Z,94975.38
2022-09-28T00:50:27.108Z,94972.25
2022-09-28T00:53:12.543Z,94961.53
2022-09-28T00:55:44.783Z,94950.31
2022-09-28T00:58:15.403Z,94950.56
2022-09-28T01:00:42.853Z,94953.44
2022-09-28T01:03:10.543Z,94954.47
2022-09-28T01:05:39.944Z,94959.19
2022-09-28T01:08:08.992Z,94951.59
2022-09-28T01:10:36.027Z,94957.34
2022-09-28T01:13:03.182Z,94953.44
2022-09-28T01:15:31.392Z,94946.38
2022-09-28T01:18:19.284Z,94967.56
2022-09-28T01:20:57.386Z,94968.84
2022-09-28T01:23:59.703Z,94963.81
2022-09-28T01:26:44.263Z,94965.88
2022-09-28T01:29:21.426Z,94959.59
2022-09-28T01:32:06.888Z,94964.00
2022-09-28T01:34:47.163Z,94961.41
2022-09-28T01:37:19.863Z,94958.00
2022-09-28T01:39:50.384Z,94949.41
2022-09-28T01:42:24.283Z,94938.72
2022-09-28T01:44:54.703Z,94937.91
2022-09-28T01:47:24.344Z,94936.09
2022-09-28T01:49:59.462Z,94943.66
2022-09-28T01:52:34.524Z,94936.88
2022-09-28T01:55:31.166Z,94938.41
2022-09-28T01:58:05.864Z,94929.53
2022-09-28T02:00:36.459Z,94934.50
2022-09-28T02:03:14.031Z,94936.31
2022-09-28T02:05:55.704Z,94937.63
2022-09-28T02:08:33.650Z,94936.56
2022-09-28T02:11:05.142Z,94938.09
2022-09-28T02:13:37.783Z,94934.22
2022-09-28T02:16:31.622Z,94929.72
2022-09-28T02:18:59.043Z,94933.38
2022-09-28T02:21:54.686Z,94933.91
2022-09-28T02:24:37.805Z,94933.38
2022-09-28T02:27:15.883Z,94922.91
2022-09-28T02:29:43.324Z,94926.53
2022-09-28T02:32:11.443Z,94931.16
2022-09-28T02:34:38.605Z,94916.34
2022-09-28T02:37:05.983Z,94917.63
2022-09-28T02:39:33.104Z,94910.06
2022-09-28T02:42:00.065Z,94908.75
2022-09-28T02:44:40.849Z,94910.03
2022-09-28T02:47:23.193Z,94908.47
2022-09-28T02:50:09.684Z,94924.34
2022-09-28T02:53:14.527Z,94922.53
2022-09-28T02:56:16.683Z,94930.56
2022-09-28T02:58:58.903Z,94921.66
2022-09-28T03:01:40.011Z,94930.00
2022-09-28T03:04:13.063Z,94924.00
2022-09-28T03:06:57.724Z,94923.22
2022-09-28T03:09:37.763Z,94913.34
2022-09-28T03:12:14.364Z,94918.31
2022-09-28T03:14:42.396Z,94924.56
2022-09-28T03:17:09.563Z,94923.78
2022-09-28T03:19:37.331Z,94915.72
2022-09-28T03:22:05.850Z,94917.28
2022-09-28T03:24:33.123Z,94916.16
2022-09-28T03:27:00.164Z,94909.63
2022-09-28T03:29:27.207Z,94903.38
2022-09-28T03:32:00.101Z,94896.59
2022-09-28T03:34:27.232Z,94892.94
2022-09-28T03:36:54.603Z,94896.56
2022-09-28T03:39:21.651Z,94893.69
2022-09-28T03:41:48.604Z,94895.81
2022-09-28T03:44:17.766Z,94894.78
2022-09-28T03:46:44.924Z,94894.78
2022-09-28T03:49:12.103Z,94894.47
2022-09-28T03:51:39.071Z,94907.47
2022-09-28T03:54:06.173Z,94914.72
2022-09-28T03:56:33.569Z,94908.63
2022-09-28T03:59:03.697Z,94907.59
2022-09-28T04:01:32.765Z,94905.00
2022-09-28T04:04:00.345Z,94899.78
2022-09-28T04:06:27.726Z,94895.59
2022-09-28T04:08:54.883Z,94893.00
2022-09-28T04:11:21.943Z,94892.72
2022-09-28T04:13:52.605Z,94892.94
2022-09-28T04:16:19.869Z,94897.88
2022-09-28T04:19:09.336Z,94883.50
2022-09-28T04:21:52.386Z,94884.78
2022-09-28T04:24:20.509Z,94883.66
2022-09-28T04:26:47.682Z,94881.16
2022-09-28T04:29:17.867Z,94875.38
2022-09-28T04:32:06.041Z,94872.47
2022-09-28T04:34:38.777Z,94880.56
2022-09-28T04:37:09.138Z,94870.91
2022-09-28T04:39:38.440Z,94862.34
2022-09-28T04:42:06.377Z,94867.53
2022-09-28T04:44:33.408Z,94872.75
2022-09-28T04:47:06.427Z,94872.22
2022-09-28T04:49:35.671Z,94859.72
2022-09-28T04:52:18.681Z,94863.38
2022-09-28T04:54:48.807Z,94857.13
2022-09-28T04:57:16.664Z,94854.78
2022-09-28T04:59:43.745Z,94851.94
2022-09-28T05:02:11.076Z,94858.75
2022-09-28T05:04:59.089Z,94857.06
2022-09-28T05:07:34.863Z,94861.22
2022-09-28T05:10:04.459Z,94871.88
2022-09-28T05:12:32.972Z,94861.22
2022-09-28T05:15:00.787Z,94870.06
2022-09-28T05:17:28.024Z,94875.81
2022-09-28T05:20:21.045Z,94870.31
2022-09-28T05:22:48.134Z,94880.25
2022-09-28T05:25:15.247Z,94885.78
2022-09-28T05:28:08.653Z,94885.56
2022-09-28T05:31:02.390Z,94895.72
2022-09-28T05:33:47.775Z,94891.06
2022-09-28T05:36:14.915Z,94889.53
2022-09-28T05:38:43.106Z,94893.78
2022-09-28T05:41:10.136Z,94892.03
2022-09-28T05:43:38.571Z,94892.34
2022-09-28T05:46:06.737Z,94888.53
2022-09-28T05:48:36.004Z,94881.38
2022-09-28T05:51:03.194Z,94895.28
2022-09-28T05:53:30.453Z,94891.44
2022-09-28T05:55:59.896Z,94893.59
2022-09-28T05:58:28.508Z,94888.94
2022-09-28T06:00:56.577Z,94891.81
2022-09-28T06:03:24.439Z,94886.84
2022-09-28T06:05:51.746Z,94883.47
2022-09-28T06:08:18.764Z,94882.22
2022-09-28T06:10:51.775Z,94880.13
2022-09-28T06:13:18.837Z,94872.28
2022-09-28T06:15:46.575Z,94875.69
2022-09-28T06:18:15.171Z,94864.19
2022-09-28T06:21:01.316Z,94850.88
2022-09-28T06:23:33.024Z,94853.47
2022-09-28T06:26:00.477Z,94838.28
2022-09-28T06:28:27.944Z,94828.63
2022-09-28T06:30:56.080Z,94832.75
2022-09-28T06:33:25.628Z,94839.03
2022-09-28T06:35:53.452Z,94831.16
2022-09-28T06:38:20.613Z,94835.06
2022-09-28T06:40:49.044Z,94844.19
2022-09-28T06:43:16.316Z,94847.56
2022-09-28T06:46:02.864Z,94854.09
2022-09-28T06:48:50.137Z,94844.94
2022-09-28T06:51:37.118Z,94841.81
2022-09-28T06:54:20.006Z,94848.06
2022-09-28T06:56:50.479Z,94850.69
2022-09-28T06:59:19.294Z,94846.22
2022-09-28T07:01:46.957Z,94839.34
2022-09-28T07:04:28.187Z,94832.75
2022-09-28T07:07:14.348Z,94832.50
2022-09-28T07:10:01.470Z,94825.69
2022-09-28T07:12:37.481Z,94826.69
2022-09-28T07:15:20.621Z,94822.44
2022-09-28T07:18:00.344Z,94820.63
2022-09-28T07:20:30.114Z,94826.50
2022-09-28T07:23:14.693Z,94811.22
2022-09-28T07:26:24.800Z,94801.72
2022-09-28T07:29:13.365Z,94806.44
2022-09-28T07:31:58.737Z,94789.94
2022-09-28T07:34:43.925Z,94789.63
2022-09-28T07:37:46.757Z,94793.44
2022-09-28T07:40:32.595Z,94790.44
2022-09-28T07:43:07.279Z,94777.75
2022-09-28T07:45:36.817Z,94777.91
2022-09-28T07:48:04.339Z,94778.59
2022-09-28T07:50:55.296Z,94771.63
2022-09-28T07:53:40.987Z,94780.13
2022-09-28T07:56:35.058Z,94785.03
2022-09-28T07:59:08.044Z,94787.50
2022-09-28T08:01:53.689Z,94782.06
2022-09-28T08:04:21.087Z,94783.56
2022-09-28T08:06:48.527Z,94782.13
2022-09-28T08:09:15.644Z,94776.16
2022-09-28T08:12:19.886Z,94776.16
2022-09-28T08:15:23.103Z,94780.97
2022-09-28T08:18:00.515Z,94778.69
2022-09-28T08:20:51.594Z,94776.94
2022-09-28T08:23:20.168Z,94784.41
2022-09-28T08:25:49.267Z,94777.34
2022-09-28T08:28:18.226Z,94787.25
2022-09-28T08:30:48.268Z,94776.59
2022-09-28T08:33:27.698Z,94782.81
2022-09-28T08:36:13.505Z,94778.84
2022-09-28T08:39:03.248Z,94786.34
2022-09-28T08:42:21.389Z,94774.94
2022-09-28T08:45:28.946Z,94771.31
2022-09-28T08:48:42.636Z,94770.06
2022-09-28T08:51:46.095Z,94762.09
2022-09-28T08:54:30.828Z,94752.69
2022-09-28T08:57:12.565Z,94754.31
2022-09-28T08:59:48.664Z,94744.78
2022-09-28T09:02:25.929Z,94754.63
2022-09-28T09:04:58.351Z,94743.84
2022-09-28T09:08:11.114Z,94740.84
2022-09-28T09:10:51.045Z,94732.97
2022-09-28T09:13:55.244Z,94752.75
2022-09-28T09:17:00.005Z,94742.75
2022-09-28T09:19:55.153Z,94747.00
2022-09-28T09:23:06.345Z,94745.50
2022-09-28T09:25:46.475Z,94738.25
2022-09-28T09:28:42.253Z,94737.69
2022-09-28T09:31:52.098Z,94744.81
2022-09-28T09:34:43.182Z,94742.31
2022-09-28T09:37:40.898Z,94749.88
2022-09-28T09:40:49.465Z,94739.16
2022-09-28T09:44:00.524Z,94747.66
2022-09-28T09:47:08.259Z,94750.25
2022-09-28T09:50:35.725Z,94752.38
2022-09-28T09:53:24.497Z,94756.34
2022-09-28T09:55:58.719Z,94747.47
2022-09-28T09:58:46.360Z,94743.53
2022-09-28T10:01:29.789Z,94743.59
2022-09-28T10:04:39.891Z,94747.19
2022-09-28T10:07:31.988Z,94743.16
2022-09-28T10:10:02.590Z,94739.94
2022-09-28T10:12:41.315Z,94749.81
2022-09-28T10:15:15.489Z,94748.38
2022-09-28T10:17:58.483Z,94753.50
2022-09-28T10:20:51.489Z,94744.25
2022-09-28T10:23:34.078Z,94747.66
2022-09-28T10:26:07.730Z,94750.59
2022-09-28T10:28:48.416Z,94743.34
2022-09-28T10:31:38.804Z,94735.41
2022-09-28T10:34:17.321Z,94741.00
2022-09-28T10:36:53.170Z,94741.91
2022-09-28T10:39:50.991Z,94747.91
2022-09-28T10:42:26.000Z,94745.22
2022-09-28T10:45:05.480Z,94749.69
2022-09-28T10:47:35.821Z,94743.06
2022-09-28T10:50:20.679Z,94740.72
2022-09-28T10:52:48.415Z,94733.28
2022-09-28T10:55:59.409Z,94732.69
2022-09-28T10:58:40.656Z,94719.91
2022-09-28T11:13:30.369Z,94712.22
2022-09-28T11:16:05.611Z,94717.75
2022-09-28T11:18:35.552Z,94716.63
2022-09-28T11:21:15.072Z,94712.09
2022-09-28T11:24:06.621Z,94702.06
2022-09-28T11:26:43.768Z,94704.56
2022-09-28T11:29:34.969Z,94698.34
2022-09-28T11:32:22.060Z,94695.09
2022-09-28T11:35:22.466Z,94699.25
2022-09-28T11:38:19.509Z,94698.34
2022-09-28T11:41:29.463Z,94686.97
2022-09-28T11:44:28.184Z,94682.78
2022-09-28T11:47:28.140Z,94696.66
2022-09-28T11:50:25.758Z,94687.94
2022-09-28T11:53:13.027Z,94674.09
2022-09-28T11:55:50.029Z,94684.66
2022-09-28T11:58:33.755Z,94676.69
2022-09-28T12:01:28.025Z,94673.91
2022-09-28T12:04:31.821Z,94672.28
2022-09-28T12:07:11.229Z,94669.75
2022-09-28T12:09:46.110Z,94662.84
2022-09-28T12:12:32.888Z,94663.75
2022-09-28T12:15:12.828Z,94649.03
2022-09-28T12:17:45.964Z,94652.41
2022-09-28T12:20:38.626Z,94647.25
2022-09-28T12:23:12.475Z,94649.47
2022-09-28T12:25:47.020Z,94642.31
2022-09-28T12:28:28.810Z,94643.44
2022-09-28T12:31:06.496Z,94643.28
2022-09-28T12:33:33.623Z,94636.63
2022-09-28T12:36:30.511Z,94636.56
2022-09-28T12:39:18.056Z,94628.72
2022-09-28T12:42:17.260Z,94634.03
2022-09-28T12:44:57.218Z,94632.53
2022-09-28T12:47:44.769Z,94626.28
2022-09-28T12:50:39.630Z,94626.16
2022-09-28T12:53:14.243Z,94624.88
2022-09-28T12:55:59.259Z,94637.53
2022-09-28T12:58:29.023Z,94629.34
2022-09-28T13:01:01.931Z,94632.88
2022-09-28T13:03:45.994Z,94626.72
2022-09-28T13:06:28.373Z,94618.50
2022-09-28T13:09:17.361Z,94619.09
2022-09-28T13:12:09.220Z,94617.56
2022-09-28T13:14:54.283Z,94617.78
2022-09-28T13:17:40.119Z,94620.44
2022-09-28T13:20:18.322Z,94620.91
2022-09-28T13:22:49.793Z,94617.63
2022-09-28T13:25:20.703Z,94617.22
2022-09-28T13:28:06.029Z,94624.00
2022-09-28T13:30:36.591Z,94622.47
2022-09-28T13:33:07.591Z,94618.66
2022-09-28T13:35:35.170Z,94625.41
2022-09-28T13:38:21.061Z,94627.94
2022-09-28T13:41:06.943Z,94624.03
2022-09-28T13:43:36.891Z,94612.63
2022-09-28T13:46:20.611Z,94612.41
2022-09-28T13:49:16.831Z,94617.09
2022-09-28T13:52:17.150Z,94608.44
2022-09-28T13:55:17.520Z,94620.97
2022-09-28T13:58:21.305Z,94609.56
2022-09-28T14:01:01.438Z,94609.19
2022-09-28T14:03:37.351Z,94609.34
2022-09-28T14:06:11.178Z,94615.16
2022-09-28T14:09:05.769Z,94621.44
2022-09-28T14:11:34.514Z,94616.28
2022-09-28T14:14:14.387Z,94628.97
2022-09-28T14:16:42.540Z,94625.22
2022-09-28T14:19:21.871Z,94612.38
2022-09-28T14:21:58.551Z,94615.34
2022-09-28T14:24:37.659Z,94620.66
2022-09-28T14:27:34.830Z,94615.84
2022-09-28T14:30:14.271Z,94624.22
2022-09-28T14:32:46.590Z,94625.63
2022-09-28T14:35:36.671Z,94626.56
2022-09-28T14:38:44.410Z,94624.38
2022-09-28T14:41:18.249Z,94630.00
2022-09-28T14:43:45.163Z,94631.84
2022-09-28T14:46:12.404Z,94628.91
2022-09-28T14:48:53.993Z,94616.63
2022-09-28T14:51:27.162Z,94622.22
2022-09-28T14:54:00.583Z,94623.94
2022-09-28T14:56:32.710Z,94618.66
2022-09-28T14:59:00.861Z,94618.81
2022-09-28T15:01:28.084Z,94623.91
2022-09-28T15:03:59.236Z,94609.94
2022-09-28T15:06:52.053Z,94612.56
2022-09-28T15:09:30.555Z,94616.00
2022-09-28T15:12:18.281Z,94617.69
2022-09-28T15:14:51.501Z,94620.00
2022-09-28T15:17:34.612Z,94615.66
2022-09-28T15:20:30.671Z,94612.84
2022-09-28T15:22:59.834Z,94612.84
2022-09-28T15:25:29.765Z,94606.91
2022-09-28T15:27:59.311Z,94610.69
2022-09-28T15:30:32.489Z,94615.19
2022-09-28T15:33:20.000Z,94615.97
2022-09-28T15:36:02.294Z,94618.44
2022-09-28T15:38:31.448Z,94623.13
2022-09-28T15:40:58.883Z,94618.28
2022-09-28T15:43:33.389Z,94626.66
2022-09-28T15:46:13.756Z,94626.66
2022-09-28T15:48:59.757Z,94627.28
2022-09-28T15:51:28.674Z,94625.72
2022-09-28T15:54:01.569Z,94622.44
2022-09-28T15:56:29.192Z,94618.84
2022-09-28T15:59:25.721Z,94624.41
2022-09-28T16:02:10.089Z,94626.59
2022-09-28T16:04:48.371Z,94630.13
2022-09-28T16:07:19.729Z,94631.84
2022-09-28T16:09:56.972Z,94638.63
2022-09-28T16:12:25.441Z,94631.81
2022-09-28T16:14:54.519Z,94626.38
2022-09-28T16:17:33.822Z,94628.06
2022-09-28T16:20:29.669Z,94631.31
2022-09-28T16:23:06.082Z,94637.47
2022-09-28T16:25:37.309Z,94629.41
2022-09-28T16:28:05.770Z,94631.38
2022-09-28T16:30:34.303Z,94635.72
2022-09-28T16:33:25.913Z,94628.75
2022-09-28T16:35:52.990Z,94629.34
2022-09-28T16:38:20.654Z,94636.47
2022-09-28T16:40:54.848Z,94635.19
2022-09-28T16:43:27.177Z,94626.84
2022-09-28T16:46:00.288Z,94630.34
2022-09-28T16:48:30.170Z,94640.59
2022-09-28T16:50:58.192Z,94645.56
2022-09-28T16:53:44.499Z,94636.59
2022-09-28T16:56:12.848Z,94633.31
2022-09-28T16:58:39.848Z,94637.81
2022-09-28T17:01:10.173Z,94634.69
2022-09-28T17:03:37.231Z,94637.63
2022-09-28T17:06:06.408Z,94642.88
2022-09-28T17:08:35.780Z,94641.47
2022-09-28T17:11:14.963Z,94643.50
2022-09-28T17:13:46.049Z,94643.81
2022-09-28T17:16:18.063Z,94644.88
2022-09-28T17:18:46.192Z,94647.03
2022-09-28T17:21:16.013Z,94643.13
2022-09-28T17:23:44.060Z,94645.00
2022-09-28T17:26:28.111Z,94638.47
2022-09-28T17:28:55.169Z,94638.00
2022-09-28T17:31:22.368Z,94638.78
2022-09-28T17:33:49.389Z,94638.28
2022-09-28T17:36:18.438Z,94636.75
2022-09-28T17:38:47.119Z,94627.59
2022-09-28T17:41:20.370Z,94619.50
2022-09-28T17:43:48.369Z,94621.34
2022-09-28T17:46:29.105Z,94633.00
2022-09-28T17:48:59.800Z,94633.00
2022-09-28T17:51:28.589Z,94633.28
2022-09-28T17:53:56.690Z,94633.75
2022-09-28T17:56:27.568Z,94637.00
2022-09-28T17:59:01.502Z,94639.78
2022-09-28T18:01:34.572Z,94645.06
2022-09-28T18:04:07.689Z,94634.06
2022-09-28T18:06:35.410Z,94638.03
2022-09-28T18:09:03.564Z,94634.13
2022-09-28T18:11:30.680Z,94638.94
2022-09-28T18:13:57.760Z,94637.97
2022-09-28T18:16:26.219Z,94636.25
2022-09-28T18:18:53.443Z,94631.56
2022-09-28T18:21:20.501Z,94636.19
2022-09-28T18:23:47.399Z,94639.09
2022-09-28T18:26:16.977Z,94634.91
2022-09-28T18:28:43.934Z,94638.16
2022-09-28T18:31:13.040Z,94642.94
2022-09-28T18:33:41.752Z,94644.28
2022-09-28T18:36:08.811Z,94639.81
2022-09-28T18:38:36.629Z,94643.50
2022-09-28T18:41:10.678Z,94637.50
2022-09-28T18:43:37.940Z,94634.38
2022-09-28T18:46:09.624Z,94630.19
2022-09-28T18:48:41.815Z,94627.25
2022-09-28T18:51:11.468Z,94628.91
2022-09-28T18:53:38.926Z,94635.56
2022-09-28T18:56:08.521Z,94639.75
2022-09-28T18:58:39.587Z,94634.50
2022-09-28T19:01:29.046Z,94641.91
2022-09-28T19:03:58.410Z,94645.41
2022-09-28T19:06:25.589Z,94647.47
2022-09-28T19:08:56.032Z,94640.91
2022-09-28T19:11:24.789Z,94628.88
2022-09-28T19:13:54.179Z,94632.25
2022-09-28T19:16:24.371Z,94634.72
2022-09-28T19:18:53.859Z,94638.41
2022-09-28T19:21:21.476Z,94635.28
2022-09-28T19:23:52.216Z,94649.06
2022-09-28T19:26:25.868Z,94655.09
2022-09-28T19:28:53.619Z,94650.91
2022-09-28T19:31:20.809Z,94650.81
2022-09-28T19:33:48.449Z,94650.03
2022-09-28T19:36:18.608Z,94649.25
2022-09-28T19:38:46.576Z,94648.47
2022-09-28T19:41:42.806Z,94654.81
2022-09-28T19:44:25.472Z,94658.50
2022-09-28T19:46:54.048Z,94657.25
2022-09-28T19:49:22.805Z,94658.03
2022-09-28T19:52:11.654Z,94649.66
2022-09-28T19:54:39.901Z,94655.22
2022-09-28T19:57:08.902Z,94660.47
2022-09-28T19:59:37.710Z,94657.84
2022-09-28T20:02:08.741Z,94652.88
2022-09-28T20:04:35.847Z,94651.50
2022-09-28T20:07:04.354Z,94650.72
2022-09-28T20:09:32.782Z,94660.19
2022-09-28T20:11:59.880Z,94664.16
2022-09-28T20:14:32.166Z,94656.28
2022-09-28T20:17:03.826Z,94667.91
2022-09-28T20:19:30.859Z,94665.28
2022-09-28T20:22:02.270Z,94655.50
2022-09-28T20:24:29.503Z,94650.56
2022-09-28T20:26:56.538Z,94655.03
2022-09-28T20:29:24.464Z,94657.94
2022-09-28T20:31:52.169Z,94664.78
2022-09-28T20:34:19.426Z,94665.63
2022-09-28T20:36:46.530Z,94672.47
2022-09-28T20:39:13.909Z,94668.75
2022-09-28T20:41:41.374Z,94667.19
2022-09-28T20:44:08.913Z,94663.31
2022-09-28T20:46:36.644Z,94657.28
2022-09-28T20:49:05.249Z,94670.13
2022-09-28T20:51:32.769Z,94667.03
2022-09-28T20:54:00.829Z,94673.84
2022-09-28T20:56:30.799Z,94664.84
2022-09-28T20:58:57.949Z,94652.31
2022-09-28T21:01:27.295Z,94653.88
2022-09-28T21:03:56.255Z,94658.66
2022-09-28T21:06:28.517Z,94657.69
2022-09-28T21:08:56.071Z,94659.22
2022-09-28T21:11:26.128Z,94663.72
2022-09-28T21:13:55.429Z,94657.47
2022-09-28T21:16:22.361Z,94651.25
2022-09-28T21:18:49.380Z,94650.19
2022-09-28T21:21:19.169Z,94653.69
2022-09-28T21:23:46.850Z,94660.00
2022-09-28T21:26:19.069Z,94660.00
2022-09-28T21:28:46.839Z,94667.13
2022-09-28T21:31:14.792Z,94666.66
2022-09-28T21:33:41.839Z,94670.06
2022-09-28T21:36:09.273Z,94667.91
2022-09-28T21:38:36.330Z,94670.81
2022-09-28T21:41:03.822Z,94664.47
2022-09-28T21:43:31.901Z,94667.91
2022-09-28T21:45:59.108Z,94666.03
2022-09-28T21:48:27.829Z,94657.38
2022-09-28T21:50:58.794Z,94667.44
2022-09-28T21:53:28.309Z,94663.69
2022-09-28T21:55:56.697Z,94660.00
2022-09-28T21:58:26.130Z,94652.91
2022-09-28T22:00:59.770Z,94660.59
2022-09-28T22:03:27.136Z,94665.56
2022-09-28T22:05:54.310Z,94662.63
2022-09-28T22:08:21.748Z,94663.69
2022-09-28T22:11:07.470Z,94662.91
2022-09-28T22:13:49.111Z,94676.56
2022-09-28T22:16:18.040Z,94674.22
2022-09-28T22:18:45.848Z,94666.34
2022-09-28T22:21:15.924Z,94663.69
2022-09-28T22:23:43.031Z,94673.75
2022-09-28T22:26:18.170Z,94674.81
2022-09-28T22:28:47.429Z,94672.47
2022-09-28T22:31:15.893Z,94671.13
2022-09-28T22:33:43.010Z,94669.75
2022-09-28T22:36:10.279Z,94674.44
2022-09-28T22:38:37.849Z,94670.25
2022-09-28T22:41:04.840Z,94674.22
2022-09-28T22:43:32.010Z,94673.16
2022-09-28T22:46:14.256Z,94667.31
2022-09-28T22:48:42.680Z,94670.13
2022-09-28T22:51:10.001Z,94662.56
2022-09-28T22:53:37.020Z,94668.78
2022-09-28T22:56:07.749Z,94666.16
2022-09-28T22:58:36.378Z,94670.34
2022-09-28T23:01:22.310Z,94679.28
2022-09-28T23:03:50.803Z,94682.22
2022-09-28T23:06:19.080Z,94678.50
2022-09-28T23:08:47.588Z,94669.34
2022-09-28T23:11:15.753Z,94669.56
2022-09-28T23:13:42.708Z,94661.09
2022-09-28T23:16:12.873Z,94662.84
2022-09-28T23:18:43.969Z,94670.22
2022-09-28T23:21:15.436Z,94669.72
2022-09-28T23:23:46.475Z,94667.22
2022-09-28T23:26:15.908Z,94667.22
2022-09-28T23:28:55.994Z,94666.72
2022-09-28T23:31:26.233Z,94667.50
2022-09-28T23:33:57.688Z,94656.69
2022-09-28T23:36:25.527Z,94660.41
2022-09-28T23:38:53.195Z,94666.16
2022-09-28T23:41:20.376Z,94655.44
2022-09-28T23:43:47.430Z,94651.44
2022-09-28T23:46:19.679Z,94658.84
2022-09-28T23:48:48.007Z,94663.31
2022-09-28T23:51:14.950Z,94675.31
2022-09-28T23:53:43.451Z,94664.47
2022-09-28T23:56:10.528Z,94670.25
2022-09-28T23:58:37.709Z,94664.81
